sensor_id;sensor_type;location;lat;lon;timestamp;P1;durP1;ratioP1;P2;durP2;ratioP2
65387;SDS011;51992;53.528;49.474;2023-09-19T00:01:08;35.45;;;16.15;;
65387;SDS011;51992;53.528;49.474;2023-09-19T00:03:34;23.92;;;13.68;;
65387;SDS011;51992;53.528;49.474;2023-09-19T00:06:03;25.02;;;13.10;;
65387;SDS011;51992;53.528;49.474;2023-09-19T00:08:30;23.63;;;13.57;;
65387;SDS011;51992;53.528;49.474;2023-09-19T00:10:56;26.45;;;14.18;;
65387;SDS011;51992;53.528;49.474;2023-09-19T00:13:30;32.22;;;15.55;;
65387;SDS011;51992;53.528;49.474;2023-09-19T00:15:56;25.17;;;13.85;;
65387;SDS011;51992;53.528;49.474;2023-09-19T00:18:24;31.33;;;14.80;;
65387;SDS011;51992;53.528;49.474;2023-09-19T00:20:57;24.05;;;13.80;;
65387;SDS011;51992;53.528;49.474;2023-09-19T00:23:23;24.20;;;12.07;;
65387;SDS011;51992;53.528;49.474;2023-09-19T00:25:50;25.88;;;13.15;;
65387;SDS011;51992;53.528;49.474;2023-09-19T00:28:16;26.00;;;11.55;;
65387;SDS011;51992;53.528;49.474;2023-09-19T00:30:44;18.88;;;10.95;;
65387;SDS011;51992;53.528;49.474;2023-09-19T00:33:10;25.02;;;12.68;;
65387;SDS011;51992;53.528;49.474;2023-09-19T00:38:07;27.55;;;13.15;;
65387;SDS011;51992;53.528;49.474;2023-09-19T00:40:33;22.17;;;11.65;;
65387;SDS011;51992;53.528;49.474;2023-09-19T00:42:59;20.10;;;11.52;;
65387;SDS011;51992;53.528;49.474;2023-09-19T00:45:25;20.27;;;11.07;;
65387;SDS011;51992;53.528;49.474;2023-09-19T00:47:51;18.67;;;11.02;;
65387;SDS011;51992;53.528;49.474;2023-09-19T00:50:18;21.55;;;10.38;;
65387;SDS011;51992;53.528;49.474;2023-09-19T00:52:47;15.73;;;8.82;;
65387;SDS011;51992;53.528;49.474;2023-09-19T00:55:15;15.43;;;9.18;;
65387;SDS011;51992;53.528;49.474;2023-09-19T00:57:41;20.80;;;8.82;;
65387;SDS011;51992;53.528;49.474;2023-09-19T01:00:07;21.42;;;9.25;;
65387;SDS011;51992;53.528;49.474;2023-09-19T01:02:36;21.67;;;10.18;;
65387;SDS011;51992;53.528;49.474;2023-09-19T01:05:02;16.95;;;10.45;;
65387;SDS011;51992;53.528;49.474;2023-09-19T01:07:30;19.90;;;10.68;;
65387;SDS011;51992;53.528;49.474;2023-09-19T01:09:57;19.42;;;10.25;;
65387;SDS011;51992;53.528;49.474;2023-09-19T01:12:30;23.17;;;10.27;;
65387;SDS011;51992;53.528;49.474;2023-09-19T01:14:59;17.13;;;9.68;;
65387;SDS011;51992;53.528;49.474;2023-09-19T01:17:32;18.52;;;10.43;;
65387;SDS011;51992;53.528;49.474;2023-09-19T01:30:17;15.52;;;10.63;;
65387;SDS011;51992;53.528;49.474;2023-09-19T01:32:44;16.17;;;10.15;;
65387;SDS011;51992;53.528;49.474;2023-09-19T01:35:12;14.30;;;9.60;;
65387;SDS011;51992;53.528;49.474;2023-09-19T01:37:38;19.13;;;10.13;;
65387;SDS011;51992;53.528;49.474;2023-09-19T01:40:06;15.07;;;8.70;;
65387;SDS011;51992;53.528;49.474;2023-09-19T01:42:55;12.85;;;8.98;;
65387;SDS011;51992;53.528;49.474;2023-09-19T01:48:12;13.27;;;8.23;;
65387;SDS011;51992;53.528;49.474;2023-09-19T01:50:43;21.40;;;11.43;;
65387;SDS011;51992;53.528;49.474;2023-09-19T01:53:14;22.17;;;11.23;;
65387;SDS011;51992;53.528;49.474;2023-09-19T01:58:19;33.58;;;15.55;;
65387;SDS011;51992;53.528;49.474;2023-09-19T02:00:46;30.15;;;15.23;;
65387;SDS011;51992;53.528;49.474;2023-09-19T02:03:13;29.88;;;16.75;;
65387;SDS011;51992;53.528;49.474;2023-09-19T02:05:39;28.38;;;15.63;;
65387;SDS011;51992;53.528;49.474;2023-09-19T02:08:05;38.13;;;18.27;;
65387;SDS011;51992;53.528;49.474;2023-09-19T02:10:31;37.83;;;17.98;;
65387;SDS011;51992;53.528;49.474;2023-09-19T02:12:57;37.47;;;17.92;;
65387;SDS011;51992;53.528;49.474;2023-09-19T02:15:24;23.58;;;12.10;;
65387;SDS011;51992;53.528;49.474;2023-09-19T02:17:50;25.63;;;14.23;;
65387;SDS011;51992;53.528;49.474;2023-09-19T02:20:17;34.10;;;18.05;;
65387;SDS011;51992;53.528;49.474;2023-09-19T02:22:45;37.45;;;18.60;;
65387;SDS011;51992;53.528;49.474;2023-09-19T02:25:11;48.75;;;20.83;;
65387;SDS011;51992;53.528;49.474;2023-09-19T02:27:39;39.67;;;21.27;;
65387;SDS011;51992;53.528;49.474;2023-09-19T02:30:05;38.72;;;19.15;;
65387;SDS011;51992;53.528;49.474;2023-09-19T02:32:31;40.35;;;18.95;;
65387;SDS011;51992;53.528;49.474;2023-09-19T02:35:01;36.97;;;19.58;;
65387;SDS011;51992;53.528;49.474;2023-09-19T02:37:27;41.92;;;18.77;;
65387;SDS011;51992;53.528;49.474;2023-09-19T02:39:52;48.55;;;19.83;;
65387;SDS011;51992;53.528;49.474;2023-09-19T02:42:18;29.58;;;11.20;;
65387;SDS011;51992;53.528;49.474;2023-09-19T02:44:44;23.27;;;10.35;;
65387;SDS011;51992;53.528;49.474;2023-09-19T02:47:12;12.43;;;8.15;;
65387;SDS011;51992;53.528;49.474;2023-09-19T02:49:38;26.27;;;11.23;;
65387;SDS011;51992;53.528;49.474;2023-09-19T02:52:03;20.95;;;12.43;;
65387;SDS011;51992;53.528;49.474;2023-09-19T02:54:29;22.77;;;10.50;;
65387;SDS011;51992;53.528;49.474;2023-09-19T02:56:55;15.65;;;9.05;;
65387;SDS011;51992;53.528;49.474;2023-09-19T02:59:21;19.55;;;10.32;;
65387;SDS011;51992;53.528;49.474;2023-09-19T03:01:46;14.90;;;8.90;;
65387;SDS011;51992;53.528;49.474;2023-09-19T03:04:13;20.63;;;9.43;;
65387;SDS011;51992;53.528;49.474;2023-09-19T03:06:45;16.23;;;9.23;;
65387;SDS011;51992;53.528;49.474;2023-09-19T03:09:11;15.88;;;9.55;;
65387;SDS011;51992;53.528;49.474;2023-09-19T03:11:37;20.75;;;10.85;;
65387;SDS011;51992;53.528;49.474;2023-09-19T03:14:03;44.67;;;18.88;;
65387;SDS011;51992;53.528;49.474;2023-09-19T03:16:29;42.75;;;19.60;;
65387;SDS011;51992;53.528;49.474;2023-09-19T03:18:55;50.53;;;19.40;;
65387;SDS011;51992;53.528;49.474;2023-09-19T03:21:21;42.00;;;19.73;;
65387;SDS011;51992;53.528;49.474;2023-09-19T03:23:47;39.47;;;20.35;;
65387;SDS011;51992;53.528;49.474;2023-09-19T03:26:13;41.72;;;19.75;;
65387;SDS011;51992;53.528;49.474;2023-09-19T03:28:39;51.17;;;23.20;;
65387;SDS011;51992;53.528;49.474;2023-09-19T03:31:06;48.60;;;21.45;;
65387;SDS011;51992;53.528;49.474;2023-09-19T03:33:32;37.90;;;18.40;;
65387;SDS011;51992;53.528;49.474;2023-09-19T03:35:59;45.03;;;19.08;;
65387;SDS011;51992;53.528;49.474;2023-09-19T03:38:26;46.63;;;18.30;;
65387;SDS011;51992;53.528;49.474;2023-09-19T03:40:52;33.80;;;16.95;;
65387;SDS011;51992;53.528;49.474;2023-09-19T03:43:18;38.30;;;19.15;;
65387;SDS011;51992;53.528;49.474;2023-09-19T03:45:44;46.10;;;21.38;;
65387;SDS011;51992;53.528;49.474;2023-09-19T03:48:12;41.05;;;21.83;;
65387;SDS011;51992;53.528;49.474;2023-09-19T03:50:38;36.45;;;16.55;;
65387;SDS011;51992;53.528;49.474;2023-09-19T03:53:04;38.53;;;19.05;;
65387;SDS011;51992;53.528;49.474;2023-09-19T03:55:30;38.88;;;18.83;;
65387;SDS011;51992;53.528;49.474;2023-09-19T03:57:56;36.67;;;19.40;;
65387;SDS011;51992;53.528;49.474;2023-09-19T04:00:22;39.22;;;18.83;;
65387;SDS011;51992;53.528;49.474;2023-09-19T04:02:51;38.65;;;21.35;;
65387;SDS011;51992;53.528;49.474;2023-09-19T04:05:17;31.88;;;17.05;;
65387;SDS011;51992;53.528;49.474;2023-09-19T04:07:42;32.03;;;16.08;;
65387;SDS011;51992;53.528;49.474;2023-09-19T04:10:08;35.17;;;17.52;;
65387;SDS011;51992;53.528;49.474;2023-09-19T04:12:37;25.45;;;12.98;;
65387;SDS011;51992;53.528;49.474;2023-09-19T04:15:03;32.17;;;14.65;;
65387;SDS011;51992;53.528;49.474;2023-09-19T04:17:28;36.60;;;16.88;;
65387;SDS011;51992;53.528;49.474;2023-09-19T04:19:54;36.38;;;17.02;;
65387;SDS011;51992;53.528;49.474;2023-09-19T04:22:20;36.30;;;16.92;;
65387;SDS011;51992;53.528;49.474;2023-09-19T04:24:45;27.40;;;13.73;;
65387;SDS011;51992;53.528;49.474;2023-09-19T04:27:11;32.65;;;14.35;;
65387;SDS011;51992;53.528;49.474;2023-09-19T04:29:40;25.90;;;11.93;;
65387;SDS011;51992;53.528;49.474;2023-09-19T04:32:07;22.35;;;10.50;;
65387;SDS011;51992;53.528;49.474;2023-09-19T04:34:36;23.33;;;10.43;;
65387;SDS011;51992;53.528;49.474;2023-09-19T04:37:02;23.73;;;10.55;;
65387;SDS011;51992;53.528;49.474;2023-09-19T04:39:29;14.07;;;9.10;;
65387;SDS011;51992;53.528;49.474;2023-09-19T04:41:54;26.98;;;10.90;;
65387;SDS011;51992;53.528;49.474;2023-09-19T04:44:21;20.70;;;9.75;;
65387;SDS011;51992;53.528;49.474;2023-09-19T04:46:47;14.27;;;8.70;;
65387;SDS011;51992;53.528;49.474;2023-09-19T04:49:13;20.25;;;9.48;;
65387;SDS011;51992;53.528;49.474;2023-09-19T04:51:39;10.88;;;6.93;;
65387;SDS011;51992;53.528;49.474;2023-09-19T04:54:05;16.48;;;8.18;;
65387;SDS011;51992;53.528;49.474;2023-09-19T04:56:31;29.85;;;9.32;;
65387;SDS011;51992;53.528;49.474;2023-09-19T04:59:00;16.25;;;7.03;;
65387;SDS011;51992;53.528;49.474;2023-09-19T05:01:26;21.25;;;7.15;;
65387;SDS011;51992;53.528;49.474;2023-09-19T05:03:53;18.17;;;8.52;;
65387;SDS011;51992;53.528;49.474;2023-09-19T05:06:19;21.13;;;7.97;;
65387;SDS011;51992;53.528;49.474;2023-09-19T05:08:55;23.30;;;6.90;;
65387;SDS011;51992;53.528;49.474;2023-09-19T05:11:20;20.25;;;7.70;;
65387;SDS011;51992;53.528;49.474;2023-09-19T05:13:48;13.52;;;6.53;;
65387;SDS011;51992;53.528;49.474;2023-09-19T05:16:16;21.55;;;7.28;;
65387;SDS011;51992;53.528;49.474;2023-09-19T05:18:41;16.70;;;6.30;;
65387;SDS011;51992;53.528;49.474;2023-09-19T05:21:07;14.13;;;5.97;;
65387;SDS011;51992;53.528;49.474;2023-09-19T05:23:33;10.23;;;5.93;;
65387;SDS011;51992;53.528;49.474;2023-09-19T05:25:59;7.53;;;5.93;;
65387;SDS011;51992;53.528;49.474;2023-09-19T05:28:25;12.20;;;5.97;;
65387;SDS011;51992;53.528;49.474;2023-09-19T05:30:52;11.20;;;5.88;;
65387;SDS011;51992;53.528;49.474;2023-09-19T05:33:18;10.80;;;6.05;;
65387;SDS011;51992;53.528;49.474;2023-09-19T05:35:44;18.83;;;7.15;;
65387;SDS011;51992;53.528;49.474;2023-09-19T05:38:12;14.35;;;6.80;;
65387;SDS011;51992;53.528;49.474;2023-09-19T05:40:39;12.95;;;6.10;;
65387;SDS011;51992;53.528;49.474;2023-09-19T05:43:08;10.27;;;5.65;;
65387;SDS011;51992;53.528;49.474;2023-09-19T05:45:34;15.55;;;6.60;;
65387;SDS011;51992;53.528;49.474;2023-09-19T05:48:12;11.00;;;5.32;;
65387;SDS011;51992;53.528;49.474;2023-09-19T05:50:42;15.10;;;6.68;;
65387;SDS011;51992;53.528;49.474;2023-09-19T05:53:08;21.20;;;5.85;;
65387;SDS011;51992;53.528;49.474;2023-09-19T05:55:38;19.05;;;6.50;;
65387;SDS011;51992;53.528;49.474;2023-09-19T05:58:04;7.63;;;4.90;;
65387;SDS011;51992;53.528;49.474;2023-09-19T06:00:30;10.77;;;5.10;;
65387;SDS011;51992;53.528;49.474;2023-09-19T06:02:57;10.48;;;5.00;;
65387;SDS011;51992;53.528;49.474;2023-09-19T06:05:27;16.33;;;5.00;;
65387;SDS011;51992;53.528;49.474;2023-09-19T06:07:53;11.00;;;5.03;;
65387;SDS011;51992;53.528;49.474;2023-09-19T06:10:19;9.70;;;4.82;;
65387;SDS011;51992;53.528;49.474;2023-09-19T06:12:48;7.72;;;3.92;;
65387;SDS011;51992;53.528;49.474;2023-09-19T06:15:15;11.10;;;3.97;;
65387;SDS011;51992;53.528;49.474;2023-09-19T06:17:42;11.48;;;4.60;;
65387;SDS011;51992;53.528;49.474;2023-09-19T06:20:11;9.98;;;3.95;;
65387;SDS011;51992;53.528;49.474;2023-09-19T06:22:41;24.20;;;5.78;;
65387;SDS011;51992;53.528;49.474;2023-09-19T06:25:11;37.97;;;8.50;;
65387;SDS011;51992;53.528;49.474;2023-09-19T06:27:38;23.80;;;6.25;;
65387;SDS011;51992;53.528;49.474;2023-09-19T06:30:07;17.15;;;5.57;;
65387;SDS011;51992;53.528;49.474;2023-09-19T06:32:33;13.55;;;4.97;;
65387;SDS011;51992;53.528;49.474;2023-09-19T06:34:59;9.68;;;4.90;;
65387;SDS011;51992;53.528;49.474;2023-09-19T06:37:29;13.50;;;4.97;;
65387;SDS011;51992;53.528;49.474;2023-09-19T06:39:55;22.77;;;4.93;;
65387;SDS011;51992;53.528;49.474;2023-09-19T06:42:21;31.50;;;6.22;;
65387;SDS011;51992;53.528;49.474;2023-09-19T06:44:48;15.70;;;4.63;;
65387;SDS011;51992;53.528;49.474;2023-09-19T06:47:15;10.93;;;3.40;;
65387;SDS011;51992;53.528;49.474;2023-09-19T06:49:43;8.88;;;3.33;;
65387;SDS011;51992;53.528;49.474;2023-09-19T06:52:12;13.95;;;3.97;;
65387;SDS011;51992;53.528;49.474;2023-09-19T06:54:38;6.13;;;3.35;;
65387;SDS011;51992;53.528;49.474;2023-09-19T06:57:05;34.83;;;7.05;;
65387;SDS011;51992;53.528;49.474;2023-09-19T06:59:31;38.42;;;6.38;;
65387;SDS011;51992;53.528;49.474;2023-09-19T07:01:58;23.77;;;4.53;;
65387;SDS011;51992;53.528;49.474;2023-09-19T07:04:25;24.98;;;5.95;;
65387;SDS011;51992;53.528;49.474;2023-09-19T07:06:52;12.13;;;5.10;;
65387;SDS011;51992;53.528;49.474;2023-09-19T07:09:18;19.50;;;4.38;;
65387;SDS011;51992;53.528;49.474;2023-09-19T07:11:50;28.35;;;5.95;;
65387;SDS011;51992;53.528;49.474;2023-09-19T07:14:16;31.10;;;5.25;;
65387;SDS011;51992;53.528;49.474;2023-09-19T07:16:42;19.30;;;4.93;;
65387;SDS011;51992;53.528;49.474;2023-09-19T07:19:10;11.55;;;3.50;;
65387;SDS011;51992;53.528;49.474;2023-09-19T07:21:36;12.00;;;3.67;;
65387;SDS011;51992;53.528;49.474;2023-09-19T07:24:04;19.10;;;4.20;;
65387;SDS011;51992;53.528;49.474;2023-09-19T07:26:31;9.07;;;3.95;;
65387;SDS011;51992;53.528;49.474;2023-09-19T07:28:57;11.07;;;3.88;;
65387;SDS011;51992;53.528;49.474;2023-09-19T07:31:23;11.77;;;5.38;;
65387;SDS011;51992;53.528;49.474;2023-09-19T07:33:50;6.75;;;3.55;;
65387;SDS011;51992;53.528;49.474;2023-09-19T07:36:17;12.50;;;3.63;;
65387;SDS011;51992;53.528;49.474;2023-09-19T07:38:43;28.48;;;4.18;;
65387;SDS011;51992;53.528;49.474;2023-09-19T07:41:09;7.57;;;3.33;;
65387;SDS011;51992;53.528;49.474;2023-09-19T07:43:35;23.40;;;4.35;;
65387;SDS011;51992;53.528;49.474;2023-09-19T07:46:04;10.40;;;2.92;;
65387;SDS011;51992;53.528;49.474;2023-09-19T07:48:33;11.63;;;3.38;;
65387;SDS011;51992;53.528;49.474;2023-09-19T07:51:05;9.02;;;3.25;;
65387;SDS011;51992;53.528;49.474;2023-09-19T07:53:32;7.78;;;3.13;;
65387;SDS011;51992;53.528;49.474;2023-09-19T07:56:06;6.82;;;3.30;;
65387;SDS011;51992;53.528;49.474;2023-09-19T07:58:33;11.77;;;3.30;;
65387;SDS011;51992;53.528;49.474;2023-09-19T08:01:03;7.72;;;3.22;;
65387;SDS011;51992;53.528;49.474;2023-09-19T08:03:28;23.63;;;3.63;;
65387;SDS011;51992;53.528;49.474;2023-09-19T08:05:56;13.82;;;3.88;;
65387;SDS011;51992;53.528;49.474;2023-09-19T08:08:23;12.77;;;3.33;;
65387;SDS011;51992;53.528;49.474;2023-09-19T08:10:55;4.40;;;2.72;;
65387;SDS011;51992;53.528;49.474;2023-09-19T08:13:23;10.82;;;3.65;;
65387;SDS011;51992;53.528;49.474;2023-09-19T08:15:58;13.15;;;3.53;;
65387;SDS011;51992;53.528;49.474;2023-09-19T08:18:27;26.73;;;4.82;;
65387;SDS011;51992;53.528;49.474;2023-09-19T08:21:02;6.55;;;2.60;;
65387;SDS011;51992;53.528;49.474;2023-09-19T08:23:31;10.20;;;3.00;;
65387;SDS011;51992;53.528;49.474;2023-09-19T08:26:00;11.10;;;3.88;;
65387;SDS011;51992;53.528;49.474;2023-09-19T08:28:37;9.07;;;3.75;;
65387;SDS011;51992;53.528;49.474;2023-09-19T08:31:18;6.40;;;2.60;;
65387;SDS011;51992;53.528;49.474;2023-09-19T08:34:03;9.55;;;2.75;;
65387;SDS011;51992;53.528;49.474;2023-09-19T08:36:34;11.10;;;3.17;;
65387;SDS011;51992;53.528;49.474;2023-09-19T08:39:04;56.92;;;6.22;;
65387;SDS011;51992;53.528;49.474;2023-09-19T08:41:34;21.90;;;3.90;;
65387;SDS011;51992;53.528;49.474;2023-09-19T08:44:03;6.38;;;3.00;;
65387;SDS011;51992;53.528;49.474;2023-09-19T08:46:31;6.55;;;3.90;;
65387;SDS011;51992;53.528;49.474;2023-09-19T08:55:01;9.85;;;4.65;;
65387;SDS011;51992;53.528;49.474;2023-09-19T08:57:33;15.45;;;3.85;;
65387;SDS011;51992;53.528;49.474;2023-09-19T09:00:00;7.13;;;3.15;;
65387;SDS011;51992;53.528;49.474;2023-09-19T09:02:27;11.20;;;4.72;;
65387;SDS011;51992;53.528;49.474;2023-09-19T09:04:54;11.82;;;4.20;;
65387;SDS011;51992;53.528;49.474;2023-09-19T09:07:20;9.20;;;3.60;;
65387;SDS011;51992;53.528;49.474;2023-09-19T09:09:49;10.63;;;4.03;;
65387;SDS011;51992;53.528;49.474;2023-09-19T09:12:15;19.17;;;4.45;;
65387;SDS011;51992;53.528;49.474;2023-09-19T09:15:00;11.45;;;3.47;;
65387;SDS011;51992;53.528;49.474;2023-09-19T09:17:39;15.32;;;4.00;;
65387;SDS011;51992;53.528;49.474;2023-09-19T09:20:08;9.20;;;3.88;;
65387;SDS011;51992;53.528;49.474;2023-09-19T09:22:50;43.83;;;10.30;;
65387;SDS011;51992;53.528;49.474;2023-09-19T09:25:21;7.72;;;3.17;;
65387;SDS011;51992;53.528;49.474;2023-09-19T09:27:59;6.50;;;3.67;;
65387;SDS011;51992;53.528;49.474;2023-09-19T09:30:34;10.48;;;3.28;;
65387;SDS011;51992;53.528;49.474;2023-09-19T09:33:08;7.25;;;3.00;;
65387;SDS011;51992;53.528;49.474;2023-09-19T09:35:46;25.77;;;4.25;;
65387;SDS011;51992;53.528;49.474;2023-09-19T09:38:13;15.18;;;3.80;;
65387;SDS011;51992;53.528;49.474;2023-09-19T09:40:50;20.38;;;4.35;;
65387;SDS011;51992;53.528;49.474;2023-09-19T09:43:35;5.85;;;2.88;;
65387;SDS011;51992;53.528;49.474;2023-09-19T09:46:19;9.27;;;3.08;;
65387;SDS011;51992;53.528;49.474;2023-09-19T09:51:39;16.02;;;6.10;;
65387;SDS011;51992;53.528;49.474;2023-09-19T09:59:20;10.85;;;4.50;;
65387;SDS011;51992;53.528;49.474;2023-09-19T10:01:49;15.05;;;4.38;;
65387;SDS011;51992;53.528;49.474;2023-09-19T10:04:38;13.82;;;5.38;;
65387;SDS011;51992;53.528;49.474;2023-09-19T10:07:09;6.93;;;3.40;;
65387;SDS011;51992;53.528;49.474;2023-09-19T10:09:46;4.90;;;2.75;;
65387;SDS011;51992;53.528;49.474;2023-09-19T10:12:15;11.40;;;2.70;;
65387;SDS011;51992;53.528;49.474;2023-09-19T10:14:41;27.15;;;4.70;;
65387;SDS011;51992;53.528;49.474;2023-09-19T10:17:09;9.70;;;3.20;;
65387;SDS011;51992;53.528;49.474;2023-09-19T10:19:43;16.95;;;5.68;;
65387;SDS011;51992;53.528;49.474;2023-09-19T10:22:12;11.35;;;4.13;;
65387;SDS011;51992;53.528;49.474;2023-09-19T10:24:42;10.35;;;2.35;;
65387;SDS011;51992;53.528;49.474;2023-09-19T10:27:12;28.45;;;4.55;;
65387;SDS011;51992;53.528;49.474;2023-09-19T10:29:39;11.02;;;3.28;;
65387;SDS011;51992;53.528;49.474;2023-09-19T10:32:05;5.43;;;2.67;;
65387;SDS011;51992;53.528;49.474;2023-09-19T10:37:35;8.15;;;2.33;;
65387;SDS011;51992;53.528;49.474;2023-09-19T10:40:03;12.48;;;3.03;;
65387;SDS011;51992;53.528;49.474;2023-09-19T10:42:29;10.02;;;2.63;;
65387;SDS011;51992;53.528;49.474;2023-09-19T10:44:57;3.55;;;1.58;;
65387;SDS011;51992;53.528;49.474;2023-09-19T10:47:26;7.00;;;3.90;;
65387;SDS011;51992;53.528;49.474;2023-09-19T10:49:52;7.35;;;2.70;;
65387;SDS011;51992;53.528;49.474;2023-09-19T10:52:21;1.90;;;1.63;;
65387;SDS011;51992;53.528;49.474;2023-09-19T10:54:50;18.88;;;3.67;;
65387;SDS011;51992;53.528;49.474;2023-09-19T10:57:21;9.10;;;2.20;;
65387;SDS011;51992;53.528;49.474;2023-09-19T11:00:02;4.45;;;1.27;;
65387;SDS011;51992;53.528;49.474;2023-09-19T11:03:16;7.72;;;2.85;;
65387;SDS011;51992;53.528;49.474;2023-09-19T11:05:32;7.53;;;3.20;;
65387;SDS011;51992;53.528;49.474;2023-09-19T11:08:02;8.93;;;2.90;;
65387;SDS011;51992;53.528;49.474;2023-09-19T11:10:48;19.30;;;6.00;;
65387;SDS011;51992;53.528;49.474;2023-09-19T11:13:28;6.40;;;3.30;;
65387;SDS011;51992;53.528;49.474;2023-09-19T11:21:41;14.48;;;3.20;;
65387;SDS011;51992;53.528;49.474;2023-09-19T11:26:50;7.18;;;2.60;;
65387;SDS011;51992;53.528;49.474;2023-09-19T11:29:24;7.05;;;2.60;;
65387;SDS011;51992;53.528;49.474;2023-09-19T11:31:50;15.98;;;5.45;;
65387;SDS011;51992;53.528;49.474;2023-09-19T11:39:39;8.10;;;3.60;;
65387;SDS011;51992;53.528;49.474;2023-09-19T11:44:53;6.45;;;2.67;;
65387;SDS011;51992;53.528;49.474;2023-09-19T11:47:21;6.60;;;3.10;;
65387;SDS011;51992;53.528;49.474;2023-09-19T11:49:51;10.88;;;3.95;;
65387;SDS011;51992;53.528;49.474;2023-09-19T11:52:22;20.45;;;5.78;;
65387;SDS011;51992;53.528;49.474;2023-09-19T11:54:58;17.77;;;5.70;;
65387;SDS011;51992;53.528;49.474;2023-09-19T11:57:25;7.15;;;3.03;;
65387;SDS011;51992;53.528;49.474;2023-09-19T11:59:51;6.63;;;2.50;;
65387;SDS011;51992;53.528;49.474;2023-09-19T12:02:27;12.77;;;5.60;;
65387;SDS011;51992;53.528;49.474;2023-09-19T12:04:59;10.18;;;4.32;;
65387;SDS011;51992;53.528;49.474;2023-09-19T12:07:25;20.45;;;8.90;;
65387;SDS011;51992;53.528;49.474;2023-09-19T12:10:02;4.93;;;3.00;;
65387;SDS011;51992;53.528;49.474;2023-09-19T12:12:28;7.95;;;2.08;;
65387;SDS011;51992;53.528;49.474;2023-09-19T12:14:55;8.20;;;2.50;;
65387;SDS011;51992;53.528;49.474;2023-09-19T12:20:02;5.97;;;1.40;;
65387;SDS011;51992;53.528;49.474;2023-09-19T12:22:48;3.72;;;1.63;;
65387;SDS011;51992;53.528;49.474;2023-09-19T12:25:15;2.78;;;1.70;;
65387;SDS011;51992;53.528;49.474;2023-09-19T12:27:46;2.35;;;1.25;;
65387;SDS011;51992;53.528;49.474;2023-09-19T12:30:12;3.35;;;1.45;;
65387;SDS011;51992;53.528;49.474;2023-09-19T12:32:39;18.33;;;2.40;;
65387;SDS011;51992;53.528;49.474;2023-09-19T12:35:08;3.88;;;1.30;;
65387;SDS011;51992;53.528;49.474;2023-09-19T12:37:36;4.40;;;1.50;;
65387;SDS011;51992;53.528;49.474;2023-09-19T12:40:08;7.50;;;3.20;;
65387;SDS011;51992;53.528;49.474;2023-09-19T12:42:47;2.88;;;1.80;;
65387;SDS011;51992;53.528;49.474;2023-09-19T12:45:14;10.23;;;2.00;;
65387;SDS011;51992;53.528;49.474;2023-09-19T12:48:17;5.88;;;1.60;;
65387;SDS011;51992;53.528;49.474;2023-09-19T12:50:27;4.63;;;2.00;;
65387;SDS011;51992;53.528;49.474;2023-09-19T12:52:55;10.00;;;4.25;;
65387;SDS011;51992;53.528;49.474;2023-09-19T12:55:22;13.73;;;5.75;;
65387;SDS011;51992;53.528;49.474;2023-09-19T12:57:55;12.43;;;5.53;;
65387;SDS011;51992;53.528;49.474;2023-09-19T13:00:21;7.18;;;3.65;;
65387;SDS011;51992;53.528;49.474;2023-09-19T13:05:46;7.82;;;2.60;;
65387;SDS011;51992;53.528;49.474;2023-09-19T13:08:19;9.70;;;2.35;;
65387;SDS011;51992;53.528;49.474;2023-09-19T13:13:38;9.05;;;4.50;;
65387;SDS011;51992;53.528;49.474;2023-09-19T13:16:04;6.10;;;2.50;;
65387;SDS011;51992;53.528;49.474;2023-09-19T13:18:55;5.00;;;2.70;;
65387;SDS011;51992;53.528;49.474;2023-09-19T13:21:40;7.32;;;2.30;;
65387;SDS011;51992;53.528;49.474;2023-09-19T13:24:20;23.30;;;5.05;;
65387;SDS011;51992;53.528;49.474;2023-09-19T13:26:46;20.60;;;8.95;;
65387;SDS011;51992;53.528;49.474;2023-09-19T13:29:12;4.07;;;2.45;;
65387;SDS011;51992;53.528;49.474;2023-09-19T13:31:39;4.25;;;1.70;;
65387;SDS011;51992;53.528;49.474;2023-09-19T13:34:07;3.83;;;1.65;;
65387;SDS011;51992;53.528;49.474;2023-09-19T13:36:32;3.92;;;1.77;;
65387;SDS011;51992;53.528;49.474;2023-09-19T13:38:59;5.53;;;1.90;;
65387;SDS011;51992;53.528;49.474;2023-09-19T13:41:25;8.43;;;2.25;;
65387;SDS011;51992;53.528;49.474;2023-09-19T13:43:52;4.72;;;1.70;;
65387;SDS011;51992;53.528;49.474;2023-09-19T13:46:18;3.05;;;1.30;;
65387;SDS011;51992;53.528;49.474;2023-09-19T13:48:51;3.55;;;1.50;;
65387;SDS011;51992;53.528;49.474;2023-09-19T13:51:20;3.67;;;1.60;;
65387;SDS011;51992;53.528;49.474;2023-09-19T13:53:48;2.10;;;1.60;;
65387;SDS011;51992;53.528;49.474;2023-09-19T13:56:14;3.95;;;1.73;;
65387;SDS011;51992;53.528;49.474;2023-09-19T13:58:39;9.15;;;1.98;;
65387;SDS011;51992;53.528;49.474;2023-09-19T14:01:07;3.83;;;1.80;;
65387;SDS011;51992;53.528;49.474;2023-09-19T14:03:38;4.85;;;1.42;;
65387;SDS011;51992;53.528;49.474;2023-09-19T14:06:04;4.00;;;1.60;;
65387;SDS011;51992;53.528;49.474;2023-09-19T14:08:29;4.20;;;1.50;;
65387;SDS011;51992;53.528;49.474;2023-09-19T14:10:56;4.00;;;1.50;;
65387;SDS011;51992;53.528;49.474;2023-09-19T14:13:21;7.22;;;1.92;;
65387;SDS011;51992;53.528;49.474;2023-09-19T14:15:47;6.10;;;1.60;;
65387;SDS011;51992;53.528;49.474;2023-09-19T14:18:13;4.88;;;1.55;;
65387;SDS011;51992;53.528;49.474;2023-09-19T14:20:39;4.38;;;1.58;;
65387;SDS011;51992;53.528;49.474;2023-09-19T14:23:06;1.70;;;1.30;;
65387;SDS011;51992;53.528;49.474;2023-09-19T14:25:33;2.20;;;1.45;;
65387;SDS011;51992;53.528;49.474;2023-09-19T14:27:59;5.32;;;1.48;;
65387;SDS011;51992;53.528;49.474;2023-09-19T14:30:25;3.58;;;1.70;;
65387;SDS011;51992;53.528;49.474;2023-09-19T14:32:50;11.73;;;2.10;;
65387;SDS011;51992;53.528;49.474;2023-09-19T14:35:16;1.92;;;1.60;;
65387;SDS011;51992;53.528;49.474;2023-09-19T14:37:42;3.00;;;1.50;;
65387;SDS011;51992;53.528;49.474;2023-09-19T14:40:08;4.68;;;1.77;;
65387;SDS011;51992;53.528;49.474;2023-09-19T14:42:38;8.23;;;2.30;;
65387;SDS011;51992;53.528;49.474;2023-09-19T14:45:04;3.17;;;2.08;;
65387;SDS011;51992;53.528;49.474;2023-09-19T14:47:30;5.75;;;1.70;;
65387;SDS011;51992;53.528;49.474;2023-09-19T14:50:02;2.17;;;1.25;;
65387;SDS011;51992;53.528;49.474;2023-09-19T14:52:32;5.47;;;2.03;;
65387;SDS011;51992;53.528;49.474;2023-09-19T14:54:59;7.22;;;2.10;;
65387;SDS011;51992;53.528;49.474;2023-09-19T14:57:25;9.68;;;2.90;;
65387;SDS011;51992;53.528;49.474;2023-09-19T14:59:51;5.90;;;2.85;;
65387;SDS011;51992;53.528;49.474;2023-09-19T15:02:17;13.80;;;3.83;;
65387;SDS011;51992;53.528;49.474;2023-09-19T15:04:43;19.25;;;4.15;;
65387;SDS011;51992;53.528;49.474;2023-09-19T15:07:10;5.43;;;2.85;;
65387;SDS011;51992;53.528;49.474;2023-09-19T15:09:35;6.90;;;2.70;;
65387;SDS011;51992;53.528;49.474;2023-09-19T15:12:01;6.47;;;2.67;;
65387;SDS011;51992;53.528;49.474;2023-09-19T15:14:27;13.15;;;3.60;;
65387;SDS011;51992;53.528;49.474;2023-09-19T15:16:55;7.45;;;3.15;;
65387;SDS011;51992;53.528;49.474;2023-09-19T15:19:20;19.35;;;4.55;;
65387;SDS011;51992;53.528;49.474;2023-09-19T15:21:48;12.57;;;4.82;;
65387;SDS011;51992;53.528;49.474;2023-09-19T15:24:14;14.35;;;5.53;;
65387;SDS011;51992;53.528;49.474;2023-09-19T15:26:40;16.20;;;5.78;;
65387;SDS011;51992;53.528;49.474;2023-09-19T15:29:06;21.40;;;5.93;;
65387;SDS011;51992;53.528;49.474;2023-09-19T15:31:32;38.67;;;6.65;;